sensor_id;sensor_type;location;lat;lon;timestamp;temperature;humidity
17998;DHT22;9124;48.144;17.098;2023-11-22T00:01:34;5.30;99.90
17998;DHT22;9124;48.144;17.098;2023-11-22T00:06:00;5.50;99.90
17998;DHT22;9124;48.144;17.098;2023-11-22T00:10:31;5.70;99.90
17998;DHT22;9124;48.144;17.098;2023-11-22T00:14:58;5.80;99.90
17998;DHT22;9124;48.144;17.098;2023-11-22T00:19:24;6.00;99.90
17998;DHT22;9124;48.144;17.098;2023-11-22T00:23:51;6.10;99.90
17998;DHT22;9124;48.144;17.098;2023-11-22T00:28:17;6.40;99.90
17998;DHT22;9124;48.144;17.098;2023-11-22T00:32:44;6.70;99.90
17998;DHT22;9124;48.144;17.098;2023-11-22T00:37:10;6.90;99.90
17998;DHT22;9124;48.144;17.098;2023-11-22T00:41:37;7.00;99.90
17998;DHT22;9124;48.144;17.098;2023-11-22T00:46:03;7.10;99.90
17998;DHT22;9124;48.144;17.098;2023-11-22T00:50:30;7.20;99.90
17998;DHT22;9124;48.144;17.098;2023-11-22T00:54:56;7.20;99.90
17998;DHT22;9124;48.144;17.098;2023-11-22T00:59:23;7.30;99.90
17998;DHT22;9124;48.144;17.098;2023-11-22T01:03:50;7.30;99.90
17998;DHT22;9124;48.144;17.098;2023-11-22T01:08:16;7.30;99.90
17998;DHT22;9124;48.144;17.098;2023-11-22T01:12:43;7.30;99.90
17998;DHT22;9124;48.144;17.098;2023-11-22T01:17:10;7.40;99.90
17998;DHT22;9124;48.144;17.098;2023-11-22T01:21:36;7.40;99.90
17998;DHT22;9124;48.144;17.098;2023-11-22T01:26:03;7.40;99.90
17998;DHT22;9124;48.144;17.098;2023-11-22T01:30:30;7.40;99.90
17998;DHT22;9124;48.144;17.098;2023-11-22T01:34:57;7.30;99.90
17998;DHT22;9124;48.144;17.098;2023-11-22T01:39:25;7.20;99.90
17998;DHT22;9124;48.144;17.098;2023-11-22T01:43:52;7.10;99.90
17998;DHT22;9124;48.144;17.098;2023-11-22T01:48:18;6.90;99.90
17998;DHT22;9124;48.144;17.098;2023-11-22T01:52:46;6.60;99.90
17998;DHT22;9124;48.144;17.098;2023-11-22T01:57:14;6.50;99.90
17998;DHT22;9124;48.144;17.098;2023-11-22T02:01:42;6.30;99.90
17998;DHT22;9124;48.144;17.098;2023-11-22T02:06:09;6.30;99.90
17998;DHT22;9124;48.144;17.098;2023-11-22T02:10:36;6.30;99.90
17998;DHT22;9124;48.144;17.098;2023-11-22T02:15:04;6.30;99.90
17998;DHT22;9124;48.144;17.098;2023-11-22T02:19:31;6.40;99.90
17998;DHT22;9124;48.144;17.098;2023-11-22T02:23:57;6.50;99.90
17998;DHT22;9124;48.144;17.098;2023-11-22T02:28:23;6.50;99.90
17998;DHT22;9124;48.144;17.098;2023-11-22T02:32:51;6.50;99.90
17998;DHT22;9124;48.144;17.098;2023-11-22T02:37:17;6.50;99.90
17998;DHT22;9124;48.144;17.098;2023-11-22T02:41:44;6.40;99.90
17998;DHT22;9124;48.144;17.098;2023-11-22T02:46:10;6.40;99.90
17998;DHT22;9124;48.144;17.098;2023-11-22T02:50:37;6.30;99.90
17998;DHT22;9124;48.144;17.098;2023-11-22T02:55:04;6.30;99.90
17998;DHT22;9124;48.144;17.098;2023-11-22T02:59:36;6.30;99.90
17998;DHT22;9124;48.144;17.098;2023-11-22T03:04:02;6.20;99.90
17998;DHT22;9124;48.144;17.098;2023-11-22T03:08:29;6.20;99.90
17998;DHT22;9124;48.144;17.098;2023-11-22T03:12:55;6.10;99.90
17998;DHT22;9124;48.144;17.098;2023-11-22T03:17:21;6.00;99.90
17998;DHT22;9124;48.144;17.098;2023-11-22T03:21:48;5.90;99.90
17998;DHT22;9124;48.144;17.098;2023-11-22T03:26:15;5.70;99.90
17998;DHT22;9124;48.144;17.098;2023-11-22T03:30:41;5.60;99.90
17998;DHT22;9124;48.144;17.098;2023-11-22T03:35:09;5.40;99.90
17998;DHT22;9124;48.144;17.098;2023-11-22T03:39:37;5.20;99.90
17998;DHT22;9124;48.144;17.098;2023-11-22T03:44:05;5.00;99.90
17998;DHT22;9124;48.144;17.098;2023-11-22T03:48:34;4.90;99.90
17998;DHT22;9124;48.144;17.098;2023-11-22T03:53:01;4.70;99.90
17998;DHT22;9124;48.144;17.098;2023-11-22T03:57:27;4.60;99.90
17998;DHT22;9124;48.144;17.098;2023-11-22T04:01:54;4.40;99.90
17998;DHT22;9124;48.144;17.098;2023-11-22T04:06:20;4.30;99.90
17998;DHT22;9124;48.144;17.098;2023-11-22T04:10:47;4.20;99.90
17998;DHT22;9124;48.144;17.098;2023-11-22T04:15:14;4.20;99.90
17998;DHT22;9124;48.144;17.098;2023-11-22T04:19:40;4.10;99.90
17998;DHT22;9124;48.144;17.098;2023-11-22T04:24:08;4.10;99.90
17998;DHT22;9124;48.144;17.098;2023-11-22T04:28:34;4.00;99.90
17998;DHT22;9124;48.144;17.098;2023-11-22T04:33:01;3.90;99.90
17998;DHT22;9124;48.144;17.098;2023-11-22T04:37:28;3.90;99.90
17998;DHT22;9124;48.144;17.098;2023-11-22T04:41:58;3.90;99.90
17998;DHT22;9124;48.144;17.098;2023-11-22T04:46:24;4.00;99.90
17998;DHT22;9124;48.144;17.098;2023-11-22T04:50:51;4.10;99.90
17998;DHT22;9124;48.144;17.098;2023-11-22T04:55:17;4.30;99.90
17998;DHT22;9124;48.144;17.098;2023-11-22T04:59:45;4.30;99.90
17998;DHT22;9124;48.144;17.098;2023-11-22T05:04:12;4.40;99.90
17998;DHT22;9124;48.144;17.098;2023-11-22T05:08:38;4.40;99.90
17998;DHT22;9124;48.144;17.098;2023-11-22T05:13:05;4.30;99.90
17998;DHT22;9124;48.144;17.098;2023-11-22T05:17:31;4.30;99.90
17998;DHT22;9124;48.144;17.098;2023-11-22T05:21:58;4.30;99.90
17998;DHT22;9124;48.144;17.098;2023-11-22T05:26:25;4.30;99.90
17998;DHT22;9124;48.144;17.098;2023-11-22T05:30:51;4.20;99.90
17998;DHT22;9124;48.144;17.098;2023-11-22T05:35:18;4.30;99.90
17998;DHT22;9124;48.144;17.098;2023-11-22T05:39:45;4.30;99.90
17998;DHT22;9124;48.144;17.098;2023-11-22T05:44:12;4.20;99.90
17998;DHT22;9124;48.144;17.098;2023-11-22T05:48:38;4.20;99.90
17998;DHT22;9124;48.144;17.098;2023-11-22T05:53:05;4.20;99.90
17998;DHT22;9124;48.144;17.098;2023-11-22T05:57:31;4.20;99.90
17998;DHT22;9124;48.144;17.098;2023-11-22T06:01:58;4.10;99.90
17998;DHT22;9124;48.144;17.098;2023-11-22T06:06:24;4.00;99.90
17998;DHT22;9124;48.144;17.098;2023-11-22T06:10:51;3.80;99.90
17998;DHT22;9124;48.144;17.098;2023-11-22T06:15:19;3.70;99.90
17998;DHT22;9124;48.144;17.098;2023-11-22T06:19:47;3.60;99.90
17998;DHT22;9124;48.144;17.098;2023-11-22T06:24:14;3.50;99.90
17998;DHT22;9124;48.144;17.098;2023-11-22T06:28:41;3.60;99.90
17998;DHT22;9124;48.144;17.098;2023-11-22T06:33:09;3.70;99.90
17998;DHT22;9124;48.144;17.098;2023-11-22T06:37:36;3.70;99.90
17998;DHT22;9124;48.144;17.098;2023-11-22T06:42:03;3.70;99.90
17998;DHT22;9124;48.144;17.098;2023-11-22T06:46:29;3.60;99.90
17998;DHT22;9124;48.144;17.098;2023-11-22T06:50:56;3.40;99.90
17998;DHT22;9124;48.144;17.098;2023-11-22T06:55:22;3.30;99.90
17998;DHT22;9124;48.144;17.098;2023-11-22T06:59:48;3.20;99.90
17998;DHT22;9124;48.144;17.098;2023-11-22T07:04:15;3.30;99.90
17998;DHT22;9124;48.144;17.098;2023-11-22T07:08:44;3.50;99.90
17998;DHT22;9124;48.144;17.098;2023-11-22T07:13:11;3.60;99.90
17998;DHT22;9124;48.144;17.098;2023-11-22T07:17:39;3.60;99.90
17998;DHT22;9124;48.144;17.098;2023-11-22T07:22:05;3.70;99.90
17998;DHT22;9124;48.144;17.098;2023-11-22T07:26:42;3.70;99.90
17998;DHT22;9124;48.144;17.098;2023-11-22T07:31:08;3.60;99.90
17998;DHT22;9124;48.144;17.098;2023-11-22T07:35:35;3.60;99.90
17998;DHT22;9124;48.144;17.098;2023-11-22T07:40:02;3.70;99.90
17998;DHT22;9124;48.144;17.098;2023-11-22T07:44:31;3.90;99.90
17998;DHT22;9124;48.144;17.098;2023-11-22T07:48:58;3.80;99.90
17998;DHT22;9124;48.144;17.098;2023-11-22T07:53:25;3.60;99.90
17998;DHT22;9124;48.144;17.098;2023-11-22T07:57:55;3.60;99.90
17998;DHT22;9124;48.144;17.098;2023-11-22T08:02:22;3.60;99.90
17998;DHT22;9124;48.144;17.098;2023-11-22T08:06:48;3.60;99.90
17998;DHT22;9124;48.144;17.098;2023-11-22T08:11:15;3.60;99.90
17998;DHT22;9124;48.144;17.098;2023-11-22T08:15:41;3.60;99.90
17998;DHT22;9124;48.144;17.098;2023-11-22T08:20:08;3.70;99.90
17998;DHT22;9124;48.144;17.098;2023-11-22T08:24:42;3.70;99.90
17998;DHT22;9124;48.144;17.098;2023-11-22T08:29:09;3.80;99.90
17998;DHT22;9124;48.144;17.098;2023-11-22T08:33:38;3.90;99.90
17998;DHT22;9124;48.144;17.098;2023-11-22T08:38:06;4.40;99.90
17998;DHT22;9124;48.144;17.098;2023-11-22T08:42:36;5.90;99.90
17998;DHT22;9124;48.144;17.098;2023-11-22T08:47:02;7.00;99.90
17998;DHT22;9124;48.144;17.098;2023-11-22T08:51:29;8.20;99.90
17998;DHT22;9124;48.144;17.098;2023-11-22T08:55:56;11.20;99.90
17998;DHT22;9124;48.144;17.098;2023-11-22T09:00:23;12.60;99.90
17998;DHT22;9124;48.144;17.098;2023-11-22T09:04:49;13.30;96.60
17998;DHT22;9124;48.144;17.098;2023-11-22T09:09:15;13.60;90.40
17998;DHT22;9124;48.144;17.098;2023-11-22T09:13:42;14.70;87.20
17998;DHT22;9124;48.144;17.098;2023-11-22T09:18:09;15.70;80.80
17998;DHT22;9124;48.144;17.098;2023-11-22T09:22:35;16.80;77.40
17998;DHT22;9124;48.144;17.098;2023-11-22T09:27:03;18.00;74.70
17998;DHT22;9124;48.144;17.098;2023-11-22T09:31:31;18.40;69.40
17998;DHT22;9124;48.144;17.098;2023-11-22T09:35:58;17.80;64.50
17998;DHT22;9124;48.144;17.098;2023-11-22T09:40:24;18.20;64.30
17998;DHT22;9124;48.144;17.098;2023-11-22T09:44:53;18.20;60.50
17998;DHT22;9124;48.144;17.098;2023-11-22T09:49:24;18.30;58.50
17998;DHT22;9124;48.144;17.098;2023-11-22T09:54:04;17.80;56.70
17998;DHT22;9124;48.144;17.098;2023-11-22T09:58:34;16.20;54.30
17998;DHT22;9124;48.144;17.098;2023-11-22T10:03:01;13.50;55.10
17998;DHT22;9124;48.144;17.098;2023-11-22T10:07:30;12.10;57.50
17998;DHT22;9124;48.144;17.098;2023-11-22T10:12:01;11.50;57.60
17998;DHT22;9124;48.144;17.098;2023-11-22T10:16:28;10.00;57.20
17998;DHT22;9124;48.144;17.098;2023-11-22T10:20:54;9.30;59.70
17998;DHT22;9124;48.144;17.098;2023-11-22T10:25:21;9.30;60.30
17998;DHT22;9124;48.144;17.098;2023-11-22T10:29:50;9.00;60.90
17998;DHT22;9124;48.144;17.098;2023-11-22T10:34:19;9.20;63.30
17998;DHT22;9124;48.144;17.098;2023-11-22T10:38:47;10.30;64.10
17998;DHT22;9124;48.144;17.098;2023-11-22T10:43:17;9.50;60.70
17998;DHT22;9124;48.144;17.098;2023-11-22T10:47:45;8.50;60.40
17998;DHT22;9124;48.144;17.098;2023-11-22T10:52:13;7.90;61.30
17998;DHT22;9124;48.144;17.098;2023-11-22T10:56:42;7.50;61.90
17998;DHT22;9124;48.144;17.098;2023-11-22T11:01:11;7.30;62.60
17998;DHT22;9124;48.144;17.098;2023-11-22T11:05:42;7.00;63.00
17998;DHT22;9124;48.144;17.098;2023-11-22T11:10:10;6.80;63.70
17998;DHT22;9124;48.144;17.098;2023-11-22T11:14:37;6.50;64.40
17998;DHT22;9124;48.144;17.098;2023-11-22T11:19:05;6.00;64.60
17998;DHT22;9124;48.144;17.098;2023-11-22T11:23:33;5.80;65.80
17998;DHT22;9124;48.144;17.098;2023-11-22T11:28:00;5.80;66.10
17998;DHT22;9124;48.144;17.098;2023-11-22T11:32:32;5.60;66.30
17998;DHT22;9124;48.144;17.098;2023-11-22T11:36:59;5.40;66.70
17998;DHT22;9124;48.144;17.098;2023-11-22T11:41:28;5.20;67.20
17998;DHT22;9124;48.144;17.098;2023-11-22T11:45:55;5.60;67.80
17998;DHT22;9124;48.144;17.098;2023-11-22T11:50:21;5.70;67.80
17998;DHT22;9124;48.144;17.098;2023-11-22T11:54:51;5.70;67.90
17998;DHT22;9124;48.144;17.098;2023-11-22T11:59:17;5.70;68.10
17998;DHT22;9124;48.144;17.098;2023-11-22T12:03:44;5.60;68.40
17998;DHT22;9124;48.144;17.098;2023-11-22T12:08:10;5.50;68.50
17998;DHT22;9124;48.144;17.098;2023-11-22T12:12:42;5.30;68.70
17998;DHT22;9124;48.144;17.098;2023-11-22T12:17:09;5.10;69.20
17998;DHT22;9124;48.144;17.098;2023-11-22T12:21:36;5.00;69.70
17998;DHT22;9124;48.144;17.098;2023-11-22T12:26:03;5.00;70.10
17998;DHT22;9124;48.144;17.098;2023-11-22T12:30:36;5.00;70.40
17998;DHT22;9124;48.144;17.098;2023-11-22T12:35:04;5.20;70.60
17998;DHT22;9124;48.144;17.098;2023-11-22T12:39:36;5.20;70.60
17998;DHT22;9124;48.144;17.098;2023-11-22T12:44:05;5.10;70.80
17998;DHT22;9124;48.144;17.098;2023-11-22T12:48:31;5.10;71.00
17998;DHT22;9124;48.144;17.098;2023-11-22T12:53:12;5.10;71.30
17998;DHT22;9124;48.144;17.098;2023-11-22T12:58:00;5.10;72.00
17998;DHT22;9124;48.144;17.098;2023-11-22T13:02:29;5.10;71.60
17998;DHT22;9124;48.144;17.098;2023-11-22T13:06:55;5.00;71.70
17998;DHT22;9124;48.144;17.098;2023-11-22T13:11:22;4.80;71.80
17998;DHT22;9124;48.144;17.098;2023-11-22T13:15:50;4.80;72.20
17998;DHT22;9124;48.144;17.098;2023-11-22T13:20:17;4.70;72.30
17998;DHT22;9124;48.144;17.098;2023-11-22T13:24:46;4.70;72.70
17998;DHT22;9124;48.144;17.098;2023-11-22T13:29:12;4.70;72.90
17998;DHT22;9124;48.144;17.098;2023-11-22T13:33:39;4.60;73.10
17998;DHT22;9124;48.144;17.098;2023-11-22T13:38:09;4.60;73.20
17998;DHT22;9124;48.144;17.098;2023-11-22T13:42:39;4.60;73.30
17998;DHT22;9124;48.144;17.098;2023-11-22T13:47:05;4.30;73.20
17998;DHT22;9124;48.144;17.098;2023-11-22T13:51:34;4.20;73.60
17998;DHT22;9124;48.144;17.098;2023-11-22T13:56:01;4.00;73.60
17998;DHT22;9124;48.144;17.098;2023-11-22T14:00:35;3.70;73.80
17998;DHT22;9124;48.144;17.098;2023-11-22T14:05:01;3.60;74.20
17998;DHT22;9124;48.144;17.098;2023-11-22T14:09:28;3.50;74.70
17998;DHT22;9124;48.144;17.098;2023-11-22T14:13:54;3.30;74.90
17998;DHT22;9124;48.144;17.098;2023-11-22T14:18:21;3.30;75.30
17998;DHT22;9124;48.144;17.098;2023-11-22T14:22:47;3.30;75.80
17998;DHT22;9124;48.144;17.098;2023-11-22T14:27:14;3.40;76.10
17998;DHT22;9124;48.144;17.098;2023-11-22T14:31:40;3.40;76.30
17998;DHT22;9124;48.144;17.098;2023-11-22T14:36:08;3.40;76.50
17998;DHT22;9124;48.144;17.098;2023-11-22T14:40:34;3.40;76.60
17998;DHT22;9124;48.144;17.098;2023-11-22T14:45:04;3.30;76.70
17998;DHT22;9124;48.144;17.098;2023-11-22T14:49:34;3.10;76.70
17998;DHT22;9124;48.144;17.098;2023-11-22T14:54:01;2.80;77.20
17998;DHT22;9124;48.144;17.098;2023-11-22T14:58:27;2.50;77.50
17998;DHT22;9124;48.144;17.098;2023-11-22T15:02:56;2.30;77.80
17998;DHT22;9124;48.144;17.098;2023-11-22T15:07:22;2.10;78.50
17998;DHT22;9124;48.144;17.098;2023-11-22T15:11:48;2.10;79.10
17998;DHT22;9124;48.144;17.098;2023-11-22T15:16:15;2.00;79.60
17998;DHT22;9124;48.144;17.098;2023-11-22T15:20:42;2.00;79.90
17998;DHT22;9124;48.144;17.098;2023-11-22T15:25:09;1.80;80.20
17998;DHT22;9124;48.144;17.098;2023-11-22T15:29:39;1.60;81.10
17998;DHT22;9124;48.144;17.098;2023-11-22T15:34:06;1.50;81.80
17998;DHT22;9124;48.144;17.098;2023-11-22T15:38:33;1.40;83.20
17998;DHT22;9124;48.144;17.098;2023-11-22T15:43:01;1.30;84.00
17998;DHT22;9124;48.144;17.098;2023-11-22T15:47:28;1.20;85.10
17998;DHT22;9124;48.144;17.098;2023-11-22T15:51:54;1.20;86.30
17998;DHT22;9124;48.144;17.098;2023-11-22T15:56:20;1.20;87.10
17998;DHT22;9124;48.144;17.098;2023-11-22T16:00:47;1.10;87.90
17998;DHT22;9124;48.144;17.098;2023-11-22T16:05:13;1.10;88.90
17998;DHT22;9124;48.144;17.098;2023-11-22T16:09:40;1.00;90.10
17998;DHT22;9124;48.144;17.098;2023-11-22T16:14:09;1.00;90.30
17998;DHT22;9124;48.144;17.098;2023-11-22T16:18:38;1.00;90.60
17998;DHT22;9124;48.144;17.098;2023-11-22T16:23:04;0.90;91.00
17998;DHT22;9124;48.144;17.098;2023-11-22T16:27:31;0.90;91.30
17998;DHT22;9124;48.144;17.098;2023-11-22T16:31:57;1.00;91.70
17998;DHT22;9124;48.144;17.098;2023-11-22T16:36:25;1.00;92.10
17998;DHT22;9124;48.144;17.098;2023-11-22T16:40:52;0.90;92.40
17998;DHT22;9124;48.144;17.098;2023-11-22T16:45:19;0.90;92.70
17998;DHT22;9124;48.144;17.098;2023-11-22T16:49:46;0.80;93.00
17998;DHT22;9124;48.144;17.098;2023-11-22T16:54:13;0.80;93.30
17998;DHT22;9124;48.144;17.098;2023-11-22T16:58:39;0.80;93.60
17998;DHT22;9124;48.144;17.098;2023-11-22T17:03:06;0.80;94.10
17998;DHT22;9124;48.144;17.098;2023-11-22T17:07:32;0.80;94.40
17998;DHT22;9124;48.144;17.098;2023-11-22T17:11:59;0.80;94.80
17998;DHT22;9124;48.144;17.098;2023-11-22T17:16:25;0.80;95.10
17998;DHT22;9124;48.144;17.098;2023-11-22T17:20:52;0.80;95.50
17998;DHT22;9124;48.144;17.098;2023-11-22T17:25:20;0.70;95.70
17998;DHT22;9124;48.144;17.098;2023-11-22T17:29:48;0.70;96.10
17998;DHT22;9124;48.144;17.098;2023-11-22T17:34:17;0.60;96.50
17998;DHT22;9124;48.144;17.098;2023-11-22T17:38:45;0.60;96.90
17998;DHT22;9124;48.144;17.098;2023-11-22T17:43:11;0.60;97.10
17998;DHT22;9124;48.144;17.098;2023-11-22T17:47:38;0.50;97.30
17998;DHT22;9124;48.144;17.098;2023-11-22T17:52:04;0.50;97.60
17998;DHT22;9124;48.144;17.098;2023-11-22T17:56:31;0.50;98.20
17998;DHT22;9124;48.144;17.098;2023-11-22T18:00:57;0.50;98.40
17998;DHT22;9124;48.144;17.098;2023-11-22T18:05:24;0.40;98.40
17998;DHT22;9124;48.144;17.098;2023-11-22T18:09:51;0.40;98.90
17998;DHT22;9124;48.144;17.098;2023-11-22T18:14:18;0.30;99.00
17998;DHT22;9124;48.144;17.098;2023-11-22T18:18:44;0.30;99.20
17998;DHT22;9124;48.144;17.098;2023-11-22T18:23:10;0.30;99.90
17998;DHT22;9124;48.144;17.098;2023-11-22T18:27:37;0.40;99.90
17998;DHT22;9124;48.144;17.098;2023-11-22T18:32:04;0.40;99.90
17998;DHT22;9124;48.144;17.098;2023-11-22T18:36:31;0.40;99.90
17998;DHT22;9124;48.144;17.098;2023-11-22T18:40:57;0.50;99.90
17998;DHT22;9124;48.144;17.098;2023-11-22T18:45:29;0.50;99.90
17998;DHT22;9124;48.144;17.098;2023-11-22T18:49:56;0.50;99.90
17998;DHT22;9124;48.144;17.098;2023-11-22T18:54:22;0.50;99.90
17998;DHT22;9124;48.144;17.098;2023-11-22T18:58:49;0.50;99.90
17998;DHT22;9124;48.144;17.098;2023-11-22T19:03:16;0.60;99.90
17998;DHT22;9124;48.144;17.098;2023-11-22T19:07:42;0.70;99.90
17998;DHT22;9124;48.144;17.098;2023-11-22T19:12:08;0.70;99.90
17998;DHT22;9124;48.144;17.098;2023-11-22T19:16:37;0.70;99.90
17998;DHT22;9124;48.144;17.098;2023-11-22T19:21:04;0.80;99.90
17998;DHT22;9124;48.144;17.098;2023-11-22T19:25:30;0.80;99.90
17998;DHT22;9124;48.144;17.098;2023-11-22T19:29:58;0.90;99.90
17998;DHT22;9124;48.144;17.098;2023-11-22T19:34:30;1.00;99.90
17998;DHT22;9124;48.144;17.098;2023-11-22T19:38:56;0.90;99.90
17998;DHT22;9124;48.144;17.098;2023-11-22T19:43:23;1.00;99.90
17998;DHT22;9124;48.144;17.098;2023-11-22T19:47:50;1.00;99.90
17998;DHT22;9124;48.144;17.098;2023-11-22T19:52:16;1.00;99.90
17998;DHT22;9124;48.144;17.098;2023-11-22T19:56:43;1.10;99.90
17998;DHT22;9124;48.144;17.098;2023-11-22T20:01:12;1.20;99.90
17998;DHT22;9124;48.144;17.098;2023-11-22T20:05:39;1.20;99.90
17998;DHT22;9124;48.144;17.098;2023-11-22T20:10:05;1.30;99.90
17998;DHT22;9124;48.144;17.098;2023-11-22T20:14:32;1.30;99.90
17998;DHT22;9124;48.144;17.098;2023-11-22T20:18:59;1.30;99.90
17998;DHT22;9124;48.144;17.098;2023-11-22T20:23:25;1.20;99.90
17998;DHT22;9124;48.144;17.098;2023-11-22T20:27:52;1.20;99.90
17998;DHT22;9124;48.144;17.098;2023-11-22T20:32:18;1.20;99.90
17998;DHT22;9124;48.144;17.098;2023-11-22T20:36:45;1.20;99.90
17998;DHT22;9124;48.144;17.098;2023-11-22T20:41:11;1.20;99.90
17998;DHT22;9124;48.144;17.098;2023-11-22T20:45:38;1.10;99.90
17998;DHT22;9124;48.144;17.098;2023-11-22T20:50:04;1.20;99.90
17998;DHT22;9124;48.144;17.098;2023-11-22T20:54:33;1.10;99.90
17998;DHT22;9124;48.144;17.098;2023-11-22T20:58:59;1.10;99.90
17998;DHT22;9124;48.144;17.098;2023-11-22T21:03:27;1.10;99.90
17998;DHT22;9124;48.144;17.098;2023-11-22T21:07:53;1.00;99.90
17998;DHT22;9124;48.144;17.098;2023-11-22T21:12:22;1.10;99.90
17998;DHT22;9124;48.144;17.098;2023-11-22T21:16:48;1.10;99.90
17998;DHT22;9124;48.144;17.098;2023-11-22T21:21:15;1.00;99.90
17998;DHT22;9124;48.144;17.098;2023-11-22T21:25:41;1.00;99.90
17998;DHT22;9124;48.144;17.098;2023-11-22T21:30:08;1.10;99.90
17998;DHT22;9124;48.144;17.098;2023-11-22T21:34:37;1.10;99.90
17998;DHT22;9124;48.144;17.098;2023-11-22T21:39:04;1.20;99.90
17998;DHT22;9124;48.144;17.098;2023-11-22T21:43:38;1.30;99.90
17998;DHT22;9124;48.144;17.098;2023-11-22T21:48:05;1.40;99.90
17998;DHT22;9124;48.144;17.098;2023-11-22T21:52:32;1.50;99.90
17998;DHT22;9124;48.144;17.098;2023-11-22T21:56:59;1.40;99.90
17998;DHT22;9124;48.144;17.098;2023-11-22T22:01:25;1.50;99.90
17998;DHT22;9124;48.144;17.098;2023-11-22T22:05:51;1.60;99.90
17998;DHT22;9124;48.144;17.098;2023-11-22T22:10:18;1.60;99.90
17998;DHT22;9124;48.144;17.098;2023-11-22T22:14:46;1.70;99.90
17998;DHT22;9124;48.144;17.098;2023-11-22T22:19:13;1.60;99.90
17998;DHT22;9124;48.144;17.098;2023-11-22T22:23:39;1.60;99.90
17998;DHT22;9124;48.144;17.098;2023-11-22T22:28:09;1.60;99.90
17998;DHT22;9124;48.144;17.098;2023-11-22T22:32:35;1.60;99.90
17998;DHT22;9124;48.144;17.098;2023-11-22T22:37:02;1.60;99.90
17998;DHT22;9124;48.144;17.098;2023-11-22T22:41:29;1.80;99.90
17998;DHT22;9124;48.144;17.098;2023-11-22T22:45:55;1.80;99.90
17998;DHT22;9124;48.144;17.098;2023-11-22T22:50:22;1.90;99.90
17998;DHT22;9124;48.144;17.098;2023-11-22T22:54:48;1.90;99.90
17998;DHT22;9124;48.144;17.098;2023-11-22T22:59:15;1.80;99.90
17998;DHT22;9124;48.144;17.098;2023-11-22T23:03:42;1.60;99.90
17998;DHT22;9124;48.144;17.098;2023-11-22T23:08:08;1.70;99.90
17998;DHT22;9124;48.144;17.098;2023-11-22T23:12:35;1.70;99.90
17998;DHT22;9124;48.144;17.098;2023-11-22T23:17:03;1.80;99.90
17998;DHT22;9124;48.144;17.098;2023-11-22T23:21:31;1.80;99.90
17998;DHT22;9124;48.144;17.098;2023-11-22T23:25:57;1.80;99.90
17998;DHT22;9124;48.144;17.098;2023-11-22T23:30:23;1.70;99.90
17998;DHT22;9124;48.144;17.098;2023-11-22T23:34:50;1.60;99.90
17998;DHT22;9124;48.144;17.098;2023-11-22T23:39:16;1.60;99.90
17998;DHT22;9124;48.144;17.098;2023-11-22T23:43:42;1.70;99.90
17998;DHT22;9124;48.144;17.098;2023-11-22T23:48:09;1.70;99.90
17998;DHT22;9124;48.144;17.098;2023-11-22T23:52:39;1.70;99.90
17998;DHT22;9124;48.144;17.098;2023-11-22T23:57:07;1.80;99.90
